Time;durP1;ratioP1;P1;durP2;ratioP2;P2;SDS_P1;SDS_P2;PMS_P1;PMS_P2;Temp;Humidity;BMP_temperature;BMP_pressure;BME280_temperature;BME280_humidity;BME280_pressure;Samples;Min_cycle;Max_cycle;Signal;HPM_P1;HPM_P2
2021/07/02 00:00:11;;;;;;;22.73;11.60;;;23.60;99.90;;;;;;5060234;28;20105;-59
2021/07/02 00:02:39;;;;;;;32.20;13.30;;;23.60;99.90;;;;;;5068962;28;20109;-59
2021/07/02 00:05:05;;;;;;;23.85;12.82;;;23.60;99.90;;;;;;5072712;28;20036;-59
2021/07/02 00:07:32;;;;;;;22.13;10.65;;;23.70;99.90;;;;;;5041762;28;20045;-60
2021/07/02 00:09:57;;;;;;;25.63;12.60;;;23.70;99.90;;;;;;5081989;28;20024;-60
2021/07/02 00:12:23;;;;;;;26.75;11.88;;;23.70;99.90;;;;;;5080028;28;20403;-60
2021/07/02 00:14:49;;;;;;;25.27;10.43;;;23.70;99.90;;;;;;5063617;28;20123;-59
2021/07/02 00:17:14;;;;;;;26.83;13.48;;;23.70;99.90;;;;;;5072366;28;20069;-60
2021/07/02 00:19:40;;;;;;;24.75;12.55;;;23.70;99.90;;;;;;5063119;28;20042;-60
2021/07/02 00:22:06;;;;;;;26.63;11.82;;;23.70;99.90;;;;;;5083188;28;20021;-60
2021/07/02 00:24:32;;;;;;;27.58;13.27;;;23.70;99.90;;;;;;5057529;28;20043;-59
2021/07/02 00:26:57;;;;;;;30.65;13.27;;;23.60;99.90;;;;;;5058105;28;20032;-60
2021/07/02 00:29:23;;;;;;;25.35;12.07;;;23.60;99.90;;;;;;5081309;28;20028;-60
2021/07/02 00:31:50;;;;;;;26.08;13.50;;;23.70;99.90;;;;;;5082510;28;20024;-59
2021/07/02 00:34:15;;;;;;;33.70;15.48;;;23.70;99.90;;;;;;5075838;28;20412;-59
2021/07/02 00:36:41;;;;;;;33.30;16.08;;;23.70;99.90;;;;;;5061803;28;20040;-59
2021/07/02 00:39:07;;;;;;;32.92;16.05;;;23.70;99.90;;;;;;5058246;28;20369;-59
2021/07/02 00:41:33;;;;;;;31.70;15.52;;;23.80;99.90;;;;;;5067057;28;20059;-59
2021/07/02 00:43:59;;;;;;;26.27;12.48;;;23.80;99.90;;;;;;5086574;28;20379;-60
2021/07/02 00:46:25;;;;;;;23.95;12.10;;;23.80;99.90;;;;;;5076499;28;20040;-59
2021/07/02 00:48:52;;;;;;;22.27;11.20;;;23.90;99.90;;;;;;5078912;28;20060;-59
2021/07/02 00:51:18;;;;;;;22.13;11.15;;;23.90;99.90;;;;;;5035346;28;20489;-60
2021/07/02 00:53:45;;;;;;;17.40;10.43;;;23.80;99.90;;;;;;5043076;28;20037;-59
2021/07/02 00:56:16;;;;;;;19.58;10.95;;;23.90;99.90;;;;;;5038323;28;20096;-59
2021/07/02 00:58:41;;;;;;;14.02;8.45;;;23.90;99.90;;;;;;5033363;28;20045;-60
2021/07/02 01:01:14;;;;;;;17.88;10.45;;;23.90;99.90;;;;;;5037040;28;20037;-60
2021/07/02 01:03:40;;;;;;;16.67;10.32;;;23.90;99.90;;;;;;5038827;28;20443;-60
2021/07/02 01:06:06;;;;;;;15.95;10.63;;;23.90;99.90;;;;;;5037372;28;20037;-61
2021/07/02 01:08:32;;;;;;;14.27;8.55;;;23.90;99.90;;;;;;5035051;28;20041;-60
2021/07/02 01:10:58;;;;;;;13.15;8.52;;;23.90;99.90;;;;;;5002877;28;20132;-60
2021/07/02 01:13:24;;;;;;;14.15;8.38;;;23.80;99.90;;;;;;5002861;28;20033;-60
2021/07/02 01:15:53;;;;;;;10.07;7.00;;;23.90;99.90;;;;;;5035762;28;20033;-60
2021/07/02 01:18:22;;;;;;;12.95;6.38;;;23.90;99.90;;;;;;5030913;28;20075;-60
2021/07/02 01:20:49;;;;;;;10.95;5.82;;;23.90;99.90;;;;;;4996751;28;20041;-60
2021/07/02 01:23:16;;;;;;;7.88;6.35;;;23.90;99.90;;;;;;5082862;28;20040;-60
2021/07/02 01:25:43;;;;;;;11.25;7.60;;;23.80;99.90;;;;;;5081809;28;20024;-60
2021/07/02 01:28:09;;;;;;;16.00;6.72;;;23.90;99.90;;;;;;5076306;28;20067;-60
2021/07/02 01:30:35;;;;;;;10.23;7.50;;;23.90;99.90;;;;;;5061817;28;20115;-59
2021/07/02 01:33:00;;;;;;;10.20;7.28;;;23.80;99.90;;;;;;5085199;28;20193;-60
2021/07/02 01:35:26;;;;;;;14.95;7.47;;;23.80;99.90;;;;;;5076313;28;20056;-60
2021/07/02 01:37:52;;;;;;;10.48;7.57;;;23.90;99.90;;;;;;5031770;28;20039;-59
2021/07/02 01:40:18;;;;;;;10.82;8.57;;;23.80;99.90;;;;;;5079012;28;20071;-59
2021/07/02 01:42:44;;;;;;;12.23;6.68;;;23.80;99.90;;;;;;5073709;28;20016;-60
2021/07/02 01:45:10;;;;;;;13.20;6.82;;;23.80;99.90;;;;;;5081559;28;20028;-59
2021/07/02 01:47:36;;;;;;;16.63;6.88;;;23.70;99.90;;;;;;5082193;28;20565;-60
2021/07/02 01:50:03;;;;;;;9.82;6.25;;;23.70;99.90;;;;;;5074162;28;20482;-60
2021/07/02 01:52:28;;;;;;;11.38;6.65;;;23.70;99.90;;;;;;5073449;28;20024;-60
2021/07/02 01:54:54;;;;;;;10.40;6.60;;;23.70;99.90;;;;;;5080490;28;20021;-59
2021/07/02 01:57:26;;;;;;;9.63;5.60;;;23.60;99.90;;;;;;5078115;28;20032;-60
2021/07/02 01:59:53;;;;;;;16.70;5.32;;;23.60;99.90;;;;;;5075870;28;20583;-60
2021/07/02 02:02:18;;;;;;;11.75;5.30;;;23.50;99.90;;;;;;5074569;28;20032;-60
2021/07/02 02:04:44;;;;;;;7.13;5.07;;;23.50;99.90;;;;;;5051675;28;20361;-59
2021/07/02 02:07:11;;;;;;;8.13;5.78;;;23.50;99.90;;;;;;5011217;28;20180;-59
2021/07/02 02:09:37;;;;;;;8.07;5.20;;;23.50;99.90;;;;;;5025388;28;20053;-60
2021/07/02 02:12:03;;;;;;;8.95;5.50;;;23.40;99.90;;;;;;5030651;28;20101;-59
2021/07/02 02:14:29;;;;;;;8.85;5.10;;;23.30;99.90;;;;;;4982160;28;20057;-59
2021/07/02 02:16:55;;;;;;;7.70;5.22;;;23.30;99.90;;;;;;5027931;28;20049;-59
2021/07/02 02:19:22;;;;;;;9.10;5.00;;;23.20;99.90;;;;;;5028481;28;20052;-59
2021/07/02 02:21:49;;;;;;;11.20;4.93;;;23.20;99.90;;;;;;4974051;28;20069;-60
2021/07/02 02:24:14;;;;;;;10.15;5.28;;;23.10;99.90;;;;;;5027158;28;20057;-60
2021/07/02 02:26:40;;;;;;;15.73;5.88;;;23.00;99.90;;;;;;5006005;28;20065;-61
2021/07/02 02:29:07;;;;;;;10.35;6.32;;;23.00;99.90;;;;;;5016527;28;20128;-61
2021/07/02 02:31:33;;;;;;;9.90;6.47;;;22.90;99.90;;;;;;5025939;28;20135;-61
2021/07/02 02:34:00;;;;;;;14.43;5.90;;;22.80;99.90;;;;;;5023270;28;20147;-61
2021/07/02 02:36:26;;;;;;;7.30;5.03;;;22.80;99.90;;;;;;5023730;28;20038;-61
2021/07/02 02:38:52;;;;;;;5.80;4.63;;;22.80;99.90;;;;;;5025504;28;20041;-61
2021/07/02 02:41:18;;;;;;;9.10;5.05;;;22.70;99.90;;;;;;5011449;28;20045;-60
2021/07/02 02:43:44;;;;;;;6.93;5.00;;;22.70;99.90;;;;;;5030007;28;20090;-61
2021/07/02 02:46:10;;;;;;;8.13;4.82;;;22.70;99.90;;;;;;5081189;28;20037;-61
2021/07/02 02:48:36;;;;;;;10.30;4.65;;;22.60;99.90;;;;;;5069479;28;20054;-61
2021/07/02 02:51:02;;;;;;;14.27;4.90;;;22.60;99.90;;;;;;5018279;28;20492;-61
2021/07/02 02:53:27;;;;;;;8.57;4.97;;;22.60;99.90;;;;;;5082716;28;20035;-61
2021/07/02 02:55:53;;;;;;;13.60;5.82;;;22.60;99.90;;;;;;5084064;28;20039;-61
2021/07/02 02:58:19;;;;;;;13.30;5.97;;;22.50;99.90;;;;;;5083089;28;20077;-61
2021/07/02 03:00:45;;;;;;;11.52;6.88;;;22.60;99.90;;;;;;5080282;28;20024;-60
2021/07/02 03:03:11;;;;;;;7.75;4.60;;;22.60;99.90;;;;;;5075272;28;20523;-60
2021/07/02 03:05:36;;;;;;;7.60;4.53;;;22.50;99.90;;;;;;5079245;28;20025;-60
2021/07/02 03:08:02;;;;;;;8.60;4.35;;;22.50;99.90;;;;;;5088156;28;20113;-61
2021/07/02 03:10:29;;;;;;;8.48;4.35;;;22.60;99.90;;;;;;5076350;28;20036;-60
2021/07/02 03:12:55;;;;;;;7.13;4.57;;;22.50;99.90;;;;;;5075348;28;20032;-61
2021/07/02 03:15:21;;;;;;;10.45;5.03;;;22.50;99.90;;;;;;5046929;28;20487;-61
2021/07/02 03:17:47;;;;;;;14.05;4.88;;;22.50;99.90;;;;;;5068582;28;20040;-61
2021/07/02 03:20:13;;;;;;;6.05;4.38;;;22.50;99.90;;;;;;5068014;28;20059;-61
2021/07/02 03:22:41;;;;;;;9.05;4.35;;;22.50;99.90;;;;;;5016611;28;20044;-61
2021/07/02 03:25:07;;;;;;;10.90;4.60;;;22.50;99.90;;;;;;5084362;28;20511;-61
2021/07/02 03:27:33;;;;;;;10.18;4.25;;;22.50;99.90;;;;;;5080548;28;20024;-60
2021/07/02 03:29:59;;;;;;;10.90;4.20;;;22.50;99.90;;;;;;5013947;28;20051;-60
2021/07/02 03:32:25;;;;;;;8.95;3.75;;;22.50;99.90;;;;;;5078204;28;20024;-60
2021/07/02 03:34:51;;;;;;;7.03;3.70;;;22.40;99.90;;;;;;5077372;28;20059;-60
2021/07/02 03:37:17;;;;;;;12.85;3.80;;;22.40;99.90;;;;;;5076571;28;20032;-61
2021/07/02 03:39:43;;;;;;;7.50;3.47;;;22.30;99.90;;;;;;5045478;28;20043;-61
2021/07/02 03:42:09;;;;;;;8.80;4.95;;;22.20;99.90;;;;;;5064320;28;20028;-60
2021/07/02 03:44:35;;;;;;;6.97;4.25;;;22.30;99.90;;;;;;5062180;28;20033;-61
2021/07/02 03:47:02;;;;;;;8.77;4.05;;;22.20;99.90;;;;;;5058131;28;20035;-60
2021/07/02 03:49:28;;;;;;;8.48;4.32;;;22.30;99.90;;;;;;5060639;28;20025;-60
2021/07/02 03:51:54;;;;;;;12.95;4.70;;;22.20;99.90;;;;;;5053136;28;20388;-60
2021/07/02 03:54:20;;;;;;;16.52;4.78;;;22.20;99.90;;;;;;5065984;28;20048;-60
2021/07/02 03:59:30;;;;;;;12.55;5.22;;;22.40;99.90;;;;;;5050305;28;20082;-60
2021/07/02 04:01:56;;;;;;;7.53;4.60;;;22.30;99.90;;;;;;5055983;28;20068;-61
2021/07/02 04:04:22;;;;;;;9.32;3.70;;;22.40;99.90;;;;;;5072302;28;20059;-59
2021/07/02 04:06:49;;;;;;;10.00;4.10;;;22.30;99.90;;;;;;5079266;28;20032;-60
2021/07/02 04:09:15;;;;;;;6.38;3.78;;;22.30;99.90;;;;;;5041210;28;20070;-62
2021/07/02 04:11:41;;;;;;;8.27;4.13;;;22.10;99.90;;;;;;5075666;28;20028;-60
2021/07/02 04:14:07;;;;;;;6.07;4.00;;;22.20;99.90;;;;;;5073493;28;20044;-60
2021/07/02 04:16:33;;;;;;;7.75;5.00;;;22.20;99.90;;;;;;5076209;28;20066;-60
2021/07/02 04:18:59;;;;;;;10.18;4.53;;;22.50;99.90;;;;;;5071211;28;20526;-61
2021/07/02 04:21:25;;;;;;;10.95;3.97;;;22.30;99.90;;;;;;5078728;28;20028;-61
2021/07/02 04:23:50;;;;;;;6.00;3.20;;;22.30;99.90;;;;;;5075004;28;20531;-61
2021/07/02 04:26:16;;;;;;;10.15;3.40;;;22.10;99.90;;;;;;5039540;28;20033;-61
2021/07/02 04:28:42;;;;;;;9.48;3.70;;;22.10;99.90;;;;;;5061673;28;20050;-60
2021/07/02 04:31:08;;;;;;;6.28;3.00;;;22.10;99.90;;;;;;5059317;28;20607;-60
2021/07/02 04:33:33;;;;;;;7.57;3.20;;;22.10;99.90;;;;;;5049754;28;20033;-60
2021/07/02 04:35:59;;;;;;;7.25;2.90;;;22.10;99.90;;;;;;5062661;28;20041;-60
2021/07/02 04:38:25;;;;;;;8.60;3.38;;;21.90;99.90;;;;;;5063864;28;20029;-60
2021/07/02 04:40:51;;;;;;;8.85;3.42;;;22.00;99.90;;;;;;5031672;28;20507;-58
2021/07/02 04:43:17;;;;;;;6.95;3.05;;;22.10;99.90;;;;;;5023924;28;20034;-59
2021/07/02 04:45:43;;;;;;;5.95;2.92;;;21.80;99.90;;;;;;5028220;28;20120;-59
2021/07/02 04:48:09;;;;;;;6.22;3.05;;;21.50;99.90;;;;;;5032974;28;20030;-59
2021/07/02 04:50:35;;;;;;;7.35;2.95;;;21.40;99.90;;;;;;5034808;28;20501;-56
2021/07/02 04:53:01;;;;;;;7.45;2.90;;;21.10;99.90;;;;;;5031456;28;20041;-55
2021/07/02 04:55:27;;;;;;;7.60;2.67;;;20.90;99.90;;;;;;5024093;28;20461;-59
2021/07/02 04:57:53;;;;;;;10.15;2.70;;;20.80;99.90;;;;;;5030949;28;20108;-58
2021/07/02 05:00:18;;;;;;;8.20;2.90;;;20.40;99.90;;;;;;5033155;28;20025;-57
2021/07/02 05:02:44;;;;;;;9.05;2.55;;;20.50;99.90;;;;;;5034174;28;20087;-60
2021/07/02 05:05:11;;;;;;;6.03;3.15;;;20.10;99.90;;;;;;5032077;28;20029;-57
2021/07/02 05:07:38;;;;;;;6.03;3.00;;;19.90;99.90;;;;;;5027561;28;20052;-57
2021/07/02 05:10:05;;;;;;;6.13;2.40;;;19.20;99.90;;;;;;5037404;28;20036;-58
2021/07/02 05:12:31;;;;;;;6.25;2.50;;;19.30;99.90;;;;;;5032593;28;20045;-57
2021/07/02 05:14:57;;;;;;;3.95;2.05;;;19.40;99.90;;;;;;5042750;28;20021;-57
2021/07/02 05:17:23;;;;;;;4.82;2.20;;;19.10;99.90;;;;;;5039472;28;20544;-57
2021/07/02 05:19:49;;;;;;;7.20;2.25;;;19.20;99.90;;;;;;5030876;28;20025;-58
2021/07/02 05:22:19;;;;;;;5.60;2.47;;;18.90;99.90;;;;;;5012703;28;20099;-57
2021/07/02 05:24:46;;;;;;;3.10;2.30;;;19.00;99.90;;;;;;5032010;28;20041;-57
2021/07/02 05:27:12;;;;;;;6.72;2.47;;;19.20;99.90;;;;;;5036215;28;20030;-57
2021/07/02 05:29:38;;;;;;;4.97;2.65;;;18.80;99.90;;;;;;5038529;28;20408;-56
2021/07/02 05:32:05;;;;;;;6.53;2.40;;;18.90;99.90;;;;;;5049668;28;20142;-58
2021/07/02 05:34:31;;;;;;;7.30;2.30;;;19.10;99.90;;;;;;5047177;28;20048;-59
2021/07/02 05:36:58;;;;;;;3.03;2.05;;;19.40;99.90;;;;;;5061767;28;20048;-59
2021/07/02 05:39:23;;;;;;;3.70;2.50;;;19.20;99.90;;;;;;5070119;28;20028;-58
2021/07/02 05:41:49;;;;;;;5.85;2.40;;;19.30;99.90;;;;;;5071602;28;20043;-58
2021/07/02 05:44:15;;;;;;;5.57;2.45;;;19.10;99.90;;;;;;5072446;28;20028;-57
2021/07/02 05:46:41;;;;;;;4.88;2.20;;;19.30;99.90;;;;;;5071329;28;20360;-57
2021/07/02 05:49:07;;;;;;;6.75;2.38;;;19.40;99.90;;;;;;5072533;28;20039;-58
2021/07/02 05:51:32;;;;;;;4.15;2.25;;;19.70;99.90;;;;;;5045429;28;20032;-57
2021/07/02 05:53:59;;;;;;;4.97;2.28;;;19.40;99.90;;;;;;5063780;28;20066;-57
2021/07/02 05:56:28;;;;;;;3.53;2.00;;;19.50;99.90;;;;;;5082074;28;20044;-58
2021/07/02 05:58:58;;;;;;;3.88;2.00;;;19.70;99.90;;;;;;5072546;28;20125;-58
2021/07/02 06:01:25;;;;;;;4.43;1.98;;;19.50;99.90;;;;;;5056193;28;20143;-58
2021/07/02 06:03:51;;;;;;;5.57;2.67;;;19.40;99.90;;;;;;5081021;28;20517;-57
2021/07/02 06:06:17;;;;;;;7.22;1.95;;;19.20;99.90;;;;;;5081599;28;20391;-58
2021/07/02 06:08:43;;;;;;;7.50;1.85;;;19.30;99.90;;;;;;5069570;28;20436;-58
2021/07/02 06:11:09;;;;;;;6.55;2.08;;;19.50;99.90;;;;;;5073975;28;20068;-58
2021/07/02 06:13:35;;;;;;;5.55;2.08;;;19.50;99.90;;;;;;5073970;28;20045;-57
2021/07/02 06:16:01;;;;;;;4.18;2.10;;;19.50;99.90;;;;;;5085129;28;20024;-57
2021/07/02 06:18:27;;;;;;;7.45;2.65;;;19.60;99.90;;;;;;5069668;28;20045;-58
2021/07/02 06:20:52;;;;;;;5.93;3.10;;;19.70;99.90;;;;;;5078257;28;20036;-57
2021/07/02 06:23:19;;;;;;;5.85;2.30;;;19.60;99.90;;;;;;5088669;28;20039;-58
2021/07/02 06:25:46;;;;;;;6.57;2.53;;;19.60;99.90;;;;;;5074602;28;20602;-58
2021/07/02 06:28:12;;;;;;;6.30;1.77;;;19.90;99.90;;;;;;5083203;28;20558;-58
2021/07/02 06:30:42;;;;;;;6.82;2.13;;;19.90;99.90;;;;;;5095433;28;20041;-58
2021/07/02 06:33:09;;;;;;;2.55;1.80;;;20.10;99.90;;;;;;5050109;28;20039;-58
2021/07/02 06:35:35;;;;;;;4.65;1.50;;;20.10;99.90;;;;;;5076558;28;20585;-57
2021/07/02 06:38:02;;;;;;;2.25;1.10;;;20.20;99.90;;;;;;5060320;28;20036;-58
2021/07/02 06:40:28;;;;;;;1.95;1.30;;;20.40;99.90;;;;;;5072515;28;20052;-58
2021/07/02 06:42:53;;;;;;;3.55;1.50;;;20.30;99.90;;;;;;5086154;28;20021;-58
2021/07/02 06:45:20;;;;;;;6.95;1.83;;;20.30;99.90;;;;;;5085464;28;20380;-57
2021/07/02 06:47:56;;;;;;;2.75;1.30;;;20.30;99.90;;;;;;5084398;28;20033;-58
2021/07/02 06:50:27;;;;;;;5.50;1.50;;;20.30;99.90;;;;;;5074288;28;20123;-58
2021/07/02 06:52:54;;;;;;;3.53;1.92;;;20.50;99.90;;;;;;5078108;28;20025;-58
2021/07/02 06:55:20;;;;;;;6.05;1.85;;;20.40;99.90;;;;;;5066359;28;20033;-57
2021/07/02 06:57:46;;;;;;;3.47;1.50;;;20.30;99.90;;;;;;5060453;28;20075;-57
2021/07/02 07:00:13;;;;;;;4.35;1.60;;;20.40;99.90;;;;;;5061794;28;20070;-58
2021/07/02 07:02:39;;;;;;;3.60;1.90;;;20.50;99.90;;;;;;5075644;28;20032;-58
2021/07/02 07:05:05;;;;;;;4.18;1.85;;;20.60;99.90;;;;;;5072317;28;20113;-58
2021/07/02 07:07:31;;;;;;;3.53;2.10;;;20.70;99.90;;;;;;5075196;28;20045;-58
2021/07/02 07:09:57;;;;;;;3.40;1.92;;;20.70;99.90;;;;;;5072948;28;20055;-58
2021/07/02 07:12:23;;;;;;;4.03;1.85;;;20.80;99.90;;;;;;5055341;28;20203;-59
2021/07/02 07:14:48;;;;;;;4.57;1.70;;;20.80;99.90;;;;;;5064582;28;20487;-57
2021/07/02 07:17:14;;;;;;;3.67;1.80;;;20.80;99.90;;;;;;5062459;28;20044;-58
2021/07/02 07:19:40;;;;;;;3.65;1.80;;;20.80;99.90;;;;;;5022338;28;20117;-58
2021/07/02 07:22:06;;;;;;;4.13;2.40;;;20.80;99.90;;;;;;5007584;28;20173;-58
2021/07/02 07:24:32;;;;;;;4.85;2.05;;;20.90;99.90;;;;;;5057891;28;20041;-58
2021/07/02 07:26:58;;;;;;;7.88;2.45;;;20.90;99.90;;;;;;5010736;28;20457;-58
2021/07/02 07:29:25;;;;;;;5.40;2.30;;;21.10;99.90;;;;;;5049981;28;20044;-58
2021/07/02 07:31:52;;;;;;;6.63;1.73;;;21.50;99.90;;;;;;5033965;28;20476;-58
2021/07/02 07:37:07;;;;;;;2.70;1.48;;;22.30;99.90;;;;;;5034818;28;20597;-58
2021/07/02 07:39:33;;;;;;;3.03;1.75;;;22.20;99.90;;;;;;5016446;28;20136;-58
2021/07/02 07:41:59;;;;;;;4.72;1.98;;;;;;;;;;5042092;28;20120;-58
2021/07/02 07:44:25;;;;;;;4.60;2.20;;;22.40;99.90;;;;;;5000163;28;20033;-58
2021/07/02 07:46:50;;;;;;;3.95;1.55;;;22.20;99.90;;;;;;5004488;28;20045;-58
2021/07/02 07:49:16;;;;;;;4.53;2.20;;;;;;;;;;5044114;28;20470;-59
2021/07/02 07:51:49;;;;;;;4.65;1.90;;;22.60;99.90;;;;;;5061539;28;20595;-59
2021/07/02 07:54:15;;;;;;;3.22;1.70;;;22.70;99.90;;;;;;5082420;28;20042;-59
2021/07/02 07:56:50;;;;;;;3.17;1.65;;;;;;;;;;5068675;28;20032;-58
2021/07/02 07:59:21;;;;;;;3.20;1.52;;;23.00;99.90;;;;;;5078669;28;20471;-57
2021/07/02 08:01:47;;;;;;;8.00;1.77;;;22.70;99.90;;;;;;5082936;28;20376;-57
2021/07/02 08:04:14;;;;;;;2.53;1.48;;;22.70;99.90;;;;;;5078269;28;20103;-57
2021/07/02 08:06:44;;;;;;;3.35;1.67;;;23.10;99.90;;;;;;5076876;28;20032;-58
2021/07/02 08:09:11;;;;;;;4.88;1.90;;;22.90;99.90;;;;;;5084436;28;20047;-57
2021/07/02 08:11:38;;;;;;;4.47;2.08;;;23.10;99.90;;;;;;5080266;28;20384;-57
2021/07/02 08:14:04;;;;;;;2.75;1.35;;;23.00;99.90;;;;;;5079605;28;20032;-58
2021/07/02 08:16:31;;;;;;;2.60;1.75;;;;;;;;;;5076361;28;20028;-58
2021/07/02 08:18:56;;;;;;;5.15;2.03;;;23.10;99.90;;;;;;5085531;28;20063;-58
2021/07/02 08:21:22;;;;;;;4.47;1.65;;;23.10;99.90;;;;;;5065762;28;20037;-57
2021/07/02 08:23:48;;;;;;;2.88;1.77;;;22.80;99.90;;;;;;5080639;28;20039;-57
2021/07/02 08:26:14;;;;;;;2.85;1.83;;;22.70;99.90;;;;;;5082585;28;20399;-57
2021/07/02 08:31:25;;;;;;;3.90;1.58;;;22.90;99.90;;;;;;5082320;28;20082;-57
2021/07/02 08:33:51;;;;;;;2.92;1.33;;;;;;;;;;5078060;28;20041;-56
2021/07/02 08:36:17;;;;;;;3.63;1.50;;;;;;;;;;5085259;28;20033;-58
2021/07/02 08:38:43;;;;;;;4.20;1.20;;;24.00;99.90;;;;;;5082011;28;20065;-57
2021/07/02 08:41:13;;;;;;;2.17;1.40;;;23.60;99.90;;;;;;5077211;28;20467;-58
2021/07/02 08:43:40;;;;;;;1.65;1.10;;;;;;;;;;5078014;28;20032;-57
2021/07/02 08:46:06;;;;;;;1.85;1.20;;;;;;;;;;5065419;28;20032;-56
2021/07/02 08:48:33;;;;;;;2.72;1.30;;;;;;;;;;5074312;28;20054;-57
2021/07/02 08:50:59;;;;;;;2.22;1.35;;;26.20;99.90;;;;;;5080163;28;20028;-58
2021/07/02 08:53:26;;;;;;;3.50;1.27;;;25.00;99.90;;;;;;5078720;28;20059;-57
2021/07/02 08:55:52;;;;;;;2.90;1.17;;;;;;;;;;5079885;28;20044;-56
2021/07/02 08:58:20;;;;;;;1.17;0.80;;;;;;;;;;5079499;28;20031;-58
2021/07/02 09:00:45;;;;;;;1.00;0.90;;;26.00;99.90;;;;;;5076895;28;20539;-58
2021/07/02 09:03:31;;;;;;;2.40;0.80;;;25.70;99.90;;;;;;5079379;28;20116;-58
2021/07/02 09:06:09;;;;;;;1.50;1.05;;;27.20;99.90;;;;;;5090206;28;20043;-57
2021/07/02 09:08:36;;;;;;;1.25;0.80;;;27.50;99.80;;;;;;5075897;28;20029;-56
2021/07/02 09:11:03;;;;;;;2.05;1.00;;;27.40;98.70;;;;;;5075156;28;20491;-57
2021/07/02 09:13:42;;;;;;;1.50;1.02;;;28.30;96.80;;;;;;5077374;28;20024;-56
2021/07/02 09:16:25;;;;;;;1.15;0.70;;;29.10;95.20;;;;;;5077398;28;20016;-59
2021/07/02 09:18:52;;;;;;;0.80;0.80;;;27.70;93.90;;;;;;5074455;28;20407;-56
2021/07/02 09:21:31;;;;;;;1.58;0.90;;;26.60;96.40;;;;;;5077721;28;20064;-56
2021/07/02 09:23:58;;;;;;;0.82;0.68;;;27.70;95.90;;;;;;5079224;28;20150;-58
2021/07/02 09:26:43;;;;;;;1.73;0.90;;;29.50;92.30;;;;;;5075808;28;20025;-57
2021/07/02 09:29:15;;;;;;;2.40;0.90;;;28.20;93.80;;;;;;5074923;28;20041;-57
2021/07/02 09:31:41;;;;;;;1.08;0.70;;;27.90;94.50;;;;;;5077751;28;20024;-57
2021/07/02 09:34:07;;;;;;;1.42;0.90;;;27.30;96.20;;;;;;5022764;28;20380;-58
2021/07/02 09:36:33;;;;;;;0.90;0.68;;;30.10;93.50;;;;;;5076717;28;20029;-57
2021/07/02 09:38:58;;;;;;;1.15;0.68;;;29.60;90.20;;;;;;5076013;28;20059;-57
2021/07/02 09:41:33;;;;;;;1.90;0.75;;;29.10;91.50;;;;;;5056052;28;20045;-57
2021/07/02 09:44:12;;;;;;;2.20;1.10;;;30.10;90.50;;;;;;5085489;28;20111;-56
2021/07/02 09:46:38;;;;;;;2.58;0.70;;;32.30;84.00;;;;;;5073758;28;20048;-57
2021/07/02 09:49:04;;;;;;;6.05;1.17;;;31.40;84.00;;;;;;5077771;28;20483;-56
2021/07/02 09:51:31;;;;;;;2.40;0.52;;;31.00;84.90;;;;;;5074566;28;20040;-58
2021/07/02 09:54:07;;;;;;;1.38;0.70;;;31.60;82.50;;;;;;5084280;28;20031;-56
2021/07/02 09:56:33;;;;;;;1.33;0.60;;;33.40;79.00;;;;;;5079943;28;20038;-57
2021/07/02 09:58:59;;;;;;;0.95;0.80;;;31.10;78.30;;;;;;5072383;28;20043;-57
2021/07/02 10:01:26;;;;;;;0.60;0.57;;;31.90;80.30;;;;;;5075880;28;20115;-56
2021/07/02 10:03:52;;;;;;;0.50;0.50;;;33.20;77.40;;;;;;5074965;28;20123;-56
2021/07/02 10:06:25;;;;;;;0.75;0.70;;;35.10;72.80;;;;;;5082169;28;20067;-57
2021/07/02 10:08:51;;;;;;;3.58;1.60;;;33.10;70.80;;;;;;5075992;28;20032;-56
2021/07/02 10:11:18;;;;;;;1.13;0.65;;;34.40;69.70;;;;;;5055567;28;20033;-57
2021/07/02 10:13:48;;;;;;;0.75;0.60;;;35.10;70.30;;;;;;5059282;28;20495;-56
2021/07/02 10:16:15;;;;;;;0.65;0.60;;;36.20;67.40;;;;;;5054054;28;20041;-56
2021/07/02 10:18:48;;;;;;;0.60;0.60;;;31.90;72.70;;;;;;5054360;28;20025;-57
2021/07/02 10:21:15;;;;;;;3.03;0.90;;;;;;;;;;5050997;28;20033;-56
2021/07/02 10:23:44;;;;;;;2.75;0.70;;;35.40;67.30;;;;;;5050994;28;20035;-58
2021/07/02 10:26:12;;;;;;;2.13;0.60;;;35.20;68.00;;;;;;5056490;28;20457;-56
2021/07/02 10:28:39;;;;;;;0.82;0.55;;;34.70;67.20;;;;;;5056616;28;20036;-56
2021/07/02 10:31:08;;;;;;;1.23;0.70;;;31.90;68.40;;;;;;5032117;28;20089;-58
2021/07/02 10:33:39;;;;;;;2.28;0.80;;;32.30;69.90;;;;;;5055958;28;20403;-57
2021/07/02 10:36:06;;;;;;;0.35;0.35;;;33.00;68.80;;;;;;5055718;28;20056;-57
2021/07/02 10:38:39;;;;;;;2.55;0.90;;;30.40;72.50;;;;;;5050038;28;20518;-56
2021/07/02 10:41:32;;;;;;;0.80;0.60;;;32.20;72.00;;;;;;5047004;28;20032;-56
2021/07/02 10:44:09;;;;;;;0.70;0.70;;;34.30;71.10;;;;;;5074105;28;20059;-56
2021/07/02 10:46:50;;;;;;;3.80;0.77;;;;;;;;;;5080885;28;20104;-56
2021/07/02 10:49:17;;;;;;;1.27;0.50;;;30.90;98.40;;;;;;5068130;28;20575;-56
2021/07/02 10:51:53;;;;;;;0.80;0.70;;;30.10;71.20;;;;;;5076079;28;20103;-56
2021/07/02 10:54:20;;;;;;;2.65;0.77;;;31.10;71.60;;;;;;5070748;28;20095;-55
2021/07/02 10:56:58;;;;;;;1.95;0.70;;;32.80;71.20;;;;;;5079459;28;20383;-58
2021/07/02 10:59:41;;;;;;;0.95;0.60;;;33.10;68.90;;;;;;5075858;28;20068;-57
2021/07/02 11:02:09;;;;;;;1.77;0.93;;;33.80;67.50;;;;;;5075422;28;20028;-56
2021/07/02 11:04:37;;;;;;;2.42;0.55;;;34.40;65.80;;;;;;5069175;28;20492;-56
2021/07/02 11:07:26;;;;;;;3.60;0.75;;;34.50;80.70;;;;;;5069150;28;21495;-55
2021/07/02 11:09:53;;;;;;;0.50;0.50;;;34.70;65.20;;;;;;5076754;28;20033;-57
2021/07/02 11:12:30;;;;;;;0.85;0.60;;;32.60;67.20;;;;;;5077949;28;20055;-56
2021/07/02 11:14:57;;;;;;;1.38;0.40;;;32.20;65.60;;;;;;5075920;28;20024;-56
2021/07/02 11:17:23;;;;;;;0.95;0.57;;;32.10;66.50;;;;;;5072456;28;20052;-57
2021/07/02 11:20:13;;;;;;;1.23;0.70;;;;;;;;;;5079997;28;20033;-56
2021/07/02 11:22:41;;;;;;;0.80;0.80;;;38.50;92.60;;;;;;5079900;28;20024;-57
2021/07/02 11:25:18;;;;;;;0.77;0.70;;;;;;;;;;5081471;28;20024;-56
2021/07/02 11:27:47;;;;;;;1.30;0.50;;;40.20;74.40;;;;;;5076787;28;20377;-58
2021/07/02 11:30:23;;;;;;;0.98;0.70;;;;;;;;;;5079099;28;20035;-58
2021/07/02 11:32:55;;;;;;;1.60;0.70;;;37.70;54.00;;;;;;5078683;28;20118;-57
2021/07/02 11:35:27;;;;;;;;;;;39.70;55.20;;;;;;5079146;28;20507;-56
2021/07/02 11:38:01;;;;;;;1.33;0.80;;;39.30;55.70;;;;;;5075868;28;19975;-56
2021/07/02 11:40:32;;;;;;;0.73;0.70;;;38.60;53.30;;;;;;5075165;28;20040;-56
2021/07/02 11:42:58;;;;;;;;;;;35.90;58.60;;;;;;5083749;28;20028;-57
2021/07/02 11:45:45;;;;;;;1.70;0.57;;;35.80;58.20;;;;;;5089386;28;20046;-56
2021/07/02 11:48:20;;;;;;;3.33;0.98;;;39.70;56.20;;;;;;5077401;28;20032;-58
2021/07/02 11:50:58;;;;;;;1.63;0.70;;;39.70;53.50;;;;;;5080853;28;20036;-58
2021/07/02 11:53:34;;;;;;;4.13;0.77;;;38.40;54.10;;;;;;5083522;28;20027;-57
2021/07/02 11:56:21;;;;;;;1.40;0.60;;;40.70;53.90;;;;;;5072627;28;20495;-58
2021/07/02 11:59:16;;;;;;;0.82;0.60;;;;;;;;;;5067998;28;20396;-58
2021/07/02 12:01:50;;;;;;;1.38;0.47;;;40.90;81.80;;;;;;5068651;28;20102;-56
2021/07/02 12:04:19;;;;;;;0.90;0.60;;;40.00;50.90;;;;;;5075217;28;20498;-58
2021/07/02 12:06:47;;;;;;;1.05;0.40;;;35.30;68.80;;;;;;5082169;28;20039;-56
2021/07/02 12:09:14;;;;;;;2.85;0.70;;;34.50;55.00;;;;;;5075934;28;20028;-57
2021/07/02 12:11:45;;;;;;;0.60;0.60;;;;;;;;;;5071066;28;20036;-58
2021/07/02 12:14:13;;;;;;;2.15;0.60;;;38.20;52.10;;;;;;5079439;28;20111;-57
2021/07/02 12:16:41;;;;;;;0.52;0.52;;;37.10;52.80;;;;;;5088270;28;20028;-57
2021/07/02 12:19:15;;;;;;;0.75;0.60;;;38.00;53.70;;;;;;5056414;28;20037;-58
2021/07/02 12:21:56;;;;;;;0.60;0.60;;;34.20;54.70;;;;;;5064346;28;20029;-57
2021/07/02 12:24:26;;;;;;;0.47;0.47;;;;;;;;;;5073025;28;20020;-58
2021/07/02 12:26:55;;;;;;;0.60;0.52;;;39.70;53.40;;;;;;5081640;28;20185;-59
2021/07/02 12:29:21;;;;;;;1.30;0.40;;;41.60;47.80;;;;;;5072150;28;20040;-58
2021/07/02 12:31:52;;;;;;;1.73;0.30;;;38.30;48.10;;;;;;5064368;28;20041;-57
2021/07/02 12:34:20;;;;;;;0.30;0.30;;;35.60;50.30;;;;;;5077437;28;20040;-57
2021/07/02 12:37:04;;;;;;;0.98;0.75;;;34.40;54.30;;;;;;5087906;28;20092;-56
2021/07/02 12:39:31;;;;;;;0.73;0.70;;;35.00;57.10;;;;;;5081660;28;20073;-57
2021/07/02 12:41:59;;;;;;;0.70;0.70;;;35.40;54.50;;;;;;5079955;28;20028;-57
2021/07/02 12:44:27;;;;;;;0.60;0.60;;;38.50;53.50;;;;;;5079825;28;20049;-57
2021/07/02 12:46:53;;;;;;;0.38;0.38;;;37.70;53.60;;;;;;5071522;28;20037;-57
2021/07/02 12:49:24;;;;;;;0.85;0.50;;;;;;;;;;5076502;28;20052;-58
2021/07/02 12:54:49;;;;;;;0.68;0.63;;;;;;;;;;5013028;28;20042;-58
2021/07/02 12:57:35;;;;;;;1.65;0.90;;;43.30;84.30;;;;;;5012126;28;20475;-57
2021/07/02 13:00:05;;;;;;;2.17;0.20;;;44.60;45.50;;;;;;5012943;28;20042;-58
2021/07/02 13:02:36;;;;;;;0.43;0.33;;;41.40;51.40;;;;;;5012316;28;20122;-56
2021/07/02 13:05:12;;;;;;;0.55;0.50;;;39.50;53.80;;;;;;5012394;28;20053;-56